Time;durP1;ratioP1;P1;durP2;ratioP2;P2;SDS_P1;SDS_P2;PMS_P1;PMS_P2;Temp;Humidity;BMP_temperature;BMP_pressure;BME280_temperature;BME280_humidity;BME280_pressure;Samples;Min_cycle;Max_cycle;Signal;HPM_P1;HPM_P2
2021/06/15 00:00:19;;;;;;;26.65;22.13;;;;;;;14.18;62.52;100754.80;128242;1095;21254;-79
2021/06/15 00:03:13;;;;;;;25.55;22.10;;;;;;;14.06;63.20;100762.36;128310;1095;22718;-78
2021/06/15 00:05:46;;;;;;;24.88;21.85;;;;;;;13.93;63.15;100765.66;128257;1095;22549;-78
2021/06/15 00:08:16;;;;;;;28.20;22.43;;;;;;;13.82;63.45;100755.45;128502;1095;25214;-79
2021/06/15 00:10:47;;;;;;;27.60;22.63;;;;;;;13.79;64.35;100761.11;128272;1095;22347;-78
2021/06/15 00:13:17;;;;;;;25.38;22.43;;;;;;;13.75;64.50;100765.13;128243;1095;23116;-78
2021/06/15 00:15:48;;;;;;;24.40;21.10;;;;;;;13.76;65.04;100761.47;128606;1092;22698;-79
2021/06/15 00:18:19;;;;;;;27.20;23.07;;;;;;;13.80;64.51;100752.98;128860;1092;22350;-79
2021/06/15 00:20:51;;;;;;;24.60;21.47;;;;;;;13.79;64.85;100748.66;128535;1092;24310;-76
2021/06/15 00:23:22;;;;;;;26.35;21.60;;;;;;;13.80;64.73;100747.67;128619;1092;23949;-78
2021/06/15 00:25:55;;;;;;;25.05;20.75;;;;;;;13.78;64.70;100754.16;128551;1092;24515;-78
2021/06/15 00:28:25;;;;;;;27.58;20.70;;;;;;;13.72;64.69;100757.52;128610;1092;23363;-77
2021/06/15 00:30:55;;;;;;;23.60;20.45;;;;;;;13.69;64.98;100768.50;128540;1092;22771;-79
2021/06/15 00:33:27;;;;;;;25.70;21.13;;;;;;;13.69;64.95;100761.35;128570;1092;22359;-79
2021/06/15 00:35:57;;;;;;;27.73;21.35;;;;;;;13.70;65.02;100749.75;128581;1092;22342;-79
2021/06/15 00:38:27;;;;;;;24.60;21.68;;;;;;;13.72;64.79;100746.91;128548;1092;23121;-78
2021/06/15 00:40:57;;;;;;;24.78;20.00;;;;;;;13.69;64.75;100745.42;128535;1092;22432;-78
2021/06/15 00:43:27;;;;;;;26.60;21.10;;;;;;;13.64;64.94;100751.28;128767;1092;22332;-79
2021/06/15 00:45:57;;;;;;;26.93;21.25;;;;;;;13.59;64.75;100744.84;128255;1092;22373;-78
2021/06/15 00:48:35;;;;;;;23.68;20.98;;;;;;;13.51;64.82;100758.19;128808;1090;24240;-78
2021/06/15 00:51:07;;;;;;;26.13;20.23;;;;;;;13.41;65.39;100751.28;128587;1092;24488;-78
2021/06/15 00:53:38;;;;;;;24.98;21.38;;;;;;;13.38;65.30;100753.45;128590;1092;24233;-78
2021/06/15 00:56:12;;;;;;;22.58;19.50;;;;;;;13.36;65.25;100740.38;128527;1092;22360;-78
2021/06/15 00:58:42;;;;;;;24.50;21.67;;;;;;;13.29;65.59;100736.75;128664;1092;22356;-78
2021/06/15 01:01:12;;;;;;;24.18;20.63;;;;;;;13.23;65.50;100734.80;128301;1092;22355;-78
2021/06/15 01:03:46;;;;;;;27.05;20.65;;;;;;;13.23;66.14;100736.59;128865;1092;22442;-77
2021/06/15 01:06:28;;;;;;;28.45;20.28;;;;;;;13.22;66.03;100734.95;128603;1092;22339;-78
2021/06/15 01:09:19;;;;;;;25.05;19.88;;;;;;;13.16;66.00;100726.72;128679;1092;22350;-77
2021/06/15 01:12:26;;;;;;;28.63;20.75;;;;;;;13.12;65.90;100722.73;128536;1092;22354;-78
2021/06/15 01:15:19;;;;;;;22.28;19.85;;;;;;;13.06;66.14;100707.55;128557;1092;22356;-78
2021/06/15 01:18:12;;;;;;;26.05;20.33;;;;;;;13.06;66.47;100720.81;128587;1092;22371;-78
2021/06/15 01:20:51;;;;;;;25.20;20.48;;;;;;;13.12;66.88;100725.39;128826;1092;24509;-78
2021/06/15 01:23:44;;;;;;;25.83;19.50;;;;;;;13.18;66.65;100722.04;128322;1092;24502;-78
2021/06/15 01:26:41;;;;;;;;;;;;;;;13.15;66.58;100732.18;128883;1092;22353;-79
2021/06/15 01:29:22;;;;;;;22.63;19.33;;;;;;;13.10;66.59;100721.28;128898;1092;21250;-78
2021/06/15 01:31:58;;;;;;;23.98;21.23;;;;;;;13.12;66.30;100721.91;128506;1092;22439;-78
2021/06/15 01:34:34;;;;;;;23.20;20.48;;;;;;;13.08;66.38;100720.63;128526;1095;25064;-78
2021/06/15 01:37:19;;;;;;;22.93;19.38;;;;;;;13.03;66.38;100713.20;128794;1095;22746;-78
2021/06/15 01:40:14;;;;;;;22.93;18.65;;;;;;;13.00;66.51;100713.55;128332;1095;22366;-77
2021/06/15 01:43:04;;;;;;;28.00;21.23;;;;;;;12.92;66.60;100710.92;128563;1095;22445;-78
2021/06/15 01:45:46;;;;;;;23.02;19.08;;;;;;;12.89;67.01;100713.92;128707;1093;23109;-77
2021/06/15 01:49:10;;;;;;;23.73;19.60;;;;;;;12.89;66.95;100721.88;128808;1094;22363;-78
2021/06/15 01:51:47;;;;;;;24.13;20.98;;;;;;;12.88;67.08;100715.75;128219;1098;22442;-78
2021/06/15 01:54:24;;;;;;;23.55;18.98;;;;;;;12.94;67.07;100719.55;128449;1097;22373;-78
2021/06/15 01:56:56;;;;;;;22.40;19.43;;;;;;;12.98;67.03;100712.88;128020;1098;22813;-79
2021/06/15 01:59:37;;;;;;;23.45;21.05;;;;;;;12.99;67.03;100711.05;128015;1098;22363;-78
2021/06/15 02:02:13;;;;;;;22.43;20.13;;;;;;;12.98;66.77;100714.72;128218;1098;22358;-79
2021/06/15 02:04:49;;;;;;;24.35;21.75;;;;;;;12.94;66.94;100722.20;127938;1099;22401;-79
2021/06/15 02:07:31;;;;;;;25.40;22.63;;;;;;;12.95;67.04;100721.19;128185;1098;23311;-78
2021/06/15 02:10:13;;;;;;;23.83;21.40;;;;;;;12.94;66.90;100724.84;127967;1101;22677;-78
2021/06/15 02:13:06;;;;;;;24.83;22.40;;;;;;;12.92;66.67;100722.36;128197;1098;24505;-76
2021/06/15 02:16:04;;;;;;;24.78;21.13;;;;;;;12.91;67.00;100727.84;128158;1101;22385;-78
2021/06/15 02:18:55;;;;;;;23.13;20.63;;;;;;;12.89;66.88;100722.70;128175;1098;24518;-78
2021/06/15 02:21:53;;;;;;;24.15;21.50;;;;;;;12.88;66.76;100725.54;128151;1098;22478;-77
2021/06/15 02:24:31;;;;;;;23.30;20.58;;;;;;;12.88;67.26;100730.84;128218;1098;23343;-78
2021/06/15 02:27:10;;;;;;;26.53;23.15;;;;;;;12.86;66.78;100732.83;128052;1098;22397;-78
2021/06/15 02:29:44;;;;;;;24.70;20.50;;;;;;;12.84;67.08;100721.59;128156;1093;22343;-77
2021/06/15 02:32:22;;;;;;;25.40;21.75;;;;;;;12.81;67.09;100728.05;128213;1095;22429;-78
2021/06/15 02:34:54;;;;;;;29.40;22.00;;;;;;;12.82;67.44;100728.88;128552;1095;22376;-78
2021/06/15 02:37:34;;;;;;;22.83;20.43;;;;;;;12.82;67.52;100726.23;128340;1095;22511;-78
2021/06/15 02:40:07;;;;;;;23.83;20.33;;;;;;;12.83;67.44;100728.72;128050;1098;22852;-78
2021/06/15 02:42:48;;;;;;;25.35;21.05;;;;;;;12.80;67.36;100733.55;128200;1098;23198;-77
2021/06/15 02:45:31;;;;;;;23.10;20.52;;;;;;;12.77;67.38;100728.59;128177;1098;22445;-78
2021/06/15 02:48:07;;;;;;;24.25;21.43;;;;;;;12.71;67.17;100728.27;128578;1098;23179;-77
2021/06/15 02:50:58;;;;;;;27.53;23.33;;;;;;;12.69;67.85;100724.98;128321;1098;22354;-78
2021/06/15 02:54:51;;;;;;;26.98;22.35;;;;;;;12.60;67.58;100733.95;128073;1098;22370;-78
2021/06/15 02:57:36;;;;;;;24.13;21.48;;;;;;;12.59;68.16;100734.93;127792;1098;22405;-80
2021/06/15 03:00:11;;;;;;;24.45;21.80;;;;;;;12.65;68.39;100747.50;128047;1098;23009;-78
2021/06/15 03:02:54;;;;;;;26.53;23.28;;;;;;;12.68;68.06;100749.81;128084;1098;22416;-79
2021/06/15 03:05:30;;;;;;;32.00;23.30;;;;;;;12.69;68.10;100746.19;128085;1098;23280;-79
2021/06/15 03:08:04;;;;;;;26.43;23.60;;;;;;;12.70;68.01;100745.17;128113;1098;22385;-78
2021/06/15 03:10:42;;;;;;;28.18;24.03;;;;;;;12.74;68.15;100750.14;128123;1098;22420;-77
2021/06/15 03:13:38;;;;;;;23.45;21.00;;;;;;;12.72;68.07;100742.34;128052;1098;22381;-78
2021/06/15 03:16:19;;;;;;;23.78;21.30;;;;;;;12.71;68.34;100740.70;128030;1098;22380;-78
2021/06/15 03:19:21;;;;;;;26.10;21.20;;;;;;;12.76;68.46;100743.64;128010;1098;22675;-79
2021/06/15 03:22:05;;;;;;;27.83;21.70;;;;;;;12.82;68.56;100744.78;128053;1098;22405;-77
2021/06/15 03:24:43;;;;;;;25.88;22.13;;;;;;;12.88;68.37;100752.05;128011;1098;22448;-77
2021/06/15 03:27:18;;;;;;;25.73;20.52;;;;;;;12.87;68.09;100732.67;128199;1095;24317;-78
2021/06/15 03:29:49;;;;;;;25.50;21.68;;;;;;;12.87;68.16;100731.84;128214;1095;22497;-78
2021/06/15 03:32:22;;;;;;;24.13;21.25;;;;;;;12.81;67.77;100730.70;127921;1098;22474;-78
2021/06/15 03:34:55;;;;;;;23.78;20.03;;;;;;;12.79;68.16;100721.27;127957;1098;22391;-77
2021/06/15 03:37:29;;;;;;;25.20;21.15;;;;;;;12.78;68.23;100725.75;127999;1098;22389;-78
2021/06/15 03:40:02;;;;;;;24.85;20.08;;;;;;;12.83;68.51;100728.72;128219;1098;23598;-77
2021/06/15 03:42:38;;;;;;;24.83;21.83;;;;;;;12.90;68.30;100742.11;128296;1095;22356;-79
2021/06/15 03:45:10;;;;;;;27.60;20.18;;;;;;;12.97;68.06;100740.41;128355;1095;24508;-77
2021/06/15 03:47:46;;;;;;;24.28;20.78;;;;;;;13.05;68.25;100744.84;128414;1098;22362;-79
2021/06/15 03:50:19;;;;;;;23.13;20.25;;;;;;;13.12;68.03;100741.30;128285;1095;24228;-79
2021/06/15 03:52:55;;;;;;;30.13;22.68;;;;;;;13.17;67.74;100744.27;128886;1095;22356;-78
2021/06/15 03:55:29;;;;;;;22.90;20.00;;;;;;;13.22;67.49;100737.61;128747;1092;22350;-78
2021/06/15 03:58:04;;;;;;;23.85;19.73;;;;;;;13.27;67.34;100743.27;128044;1095;22377;-78
2021/06/15 04:00:37;;;;;;;24.63;21.08;;;;;;;13.36;67.39;100735.08;128256;1095;22967;-79
2021/06/15 04:03:10;;;;;;;27.68;22.50;;;;;;;13.46;67.18;100740.12;128192;1095;22370;-78
2021/06/15 04:05:41;;;;;;;23.47;21.07;;;;;;;13.54;67.21;100742.73;128057;1098;22380;-78
2021/06/15 04:08:15;;;;;;;24.75;20.55;;;;;;;13.64;67.06;100739.84;127941;1098;25039;-77
2021/06/15 04:10:50;;;;;;;28.18;23.48;;;;;;;13.74;66.72;100736.94;127996;1098;23234;-77
2021/06/15 04:13:25;;;;;;;23.38;19.98;;;;;;;13.83;66.59;100739.34;128001;1098;22391;-78
2021/06/15 04:15:56;;;;;;;24.58;20.20;;;;;;;13.90;65.97;100731.48;127982;1098;22372;-78
2021/06/15 04:18:29;;;;;;;24.33;20.30;;;;;;;13.98;66.11;100734.05;127948;1098;24052;-78
2021/06/15 04:21:07;;;;;;;20.67;18.23;;;;;;;14.05;65.82;100731.50;127994;1098;24830;-78
2021/06/15 04:23:46;;;;;;;25.60;20.45;;;;;;;14.13;65.86;100736.75;128221;1092;22357;-79
2021/06/15 04:26:16;;;;;;;22.20;19.60;;;;;;;14.24;65.65;100738.13;128616;1093;22360;-78
2021/06/15 04:28:46;;;;;;;23.18;20.73;;;;;;;14.34;65.73;100734.19;128569;1095;22375;-79
2021/06/15 04:31:22;;;;;;;21.27;19.07;;;;;;;14.48;66.05;100734.37;128586;1095;22450;-78
2021/06/15 04:33:56;;;;;;;21.65;19.43;;;;;;;14.62;65.62;100730.08;128604;1095;22360;-78
2021/06/15 04:36:28;;;;;;;;;;;;;;;14.69;65.00;100734.47;128784;1093;22312;-78
2021/06/15 04:39:21;;;;;;;22.53;18.65;;;;;;;14.76;65.11;100739.87;128862;1094;21254;-77
2021/06/15 04:42:14;;;;;;;23.73;17.85;;;;;;;14.96;65.11;100738.30;128652;1092;25097;-78
2021/06/15 04:44:50;;;;;;;21.77;19.43;;;;;;;15.14;64.59;100742.38;128374;1093;22350;-77
2021/06/15 04:47:38;;;;;;;22.20;19.90;;;;;;;15.29;63.76;100735.16;128688;1092;23199;-77
2021/06/15 04:50:27;;;;;;;22.63;18.93;;;;;;;15.43;63.75;100731.63;128410;1095;22440;-78
2021/06/15 04:53:02;;;;;;;23.03;19.43;;;;;;;15.56;63.16;100735.41;128325;1093;24246;-77
2021/06/15 04:55:36;;;;;;;20.95;18.03;;;;;;;15.68;62.80;100741.91;128638;1089;22358;-78
2021/06/15 04:58:10;;;;;;;23.18;18.25;;;;;;;15.83;62.82;100739.15;128859;1093;22844;-79
2021/06/15 05:00:40;;;;;;;22.20;19.83;;;;;;;15.99;62.56;100731.73;128889;1093;22344;-78
2021/06/15 05:03:11;;;;;;;19.75;17.55;;;;;;;16.14;61.95;100726.28;128637;1095;22349;-78
2021/06/15 05:05:41;;;;;;;;;;;;;;;16.33;61.75;100729.28;128403;1095;22434;-78
2021/06/15 05:08:14;;;;;;;20.03;17.50;;;;;;;16.53;61.76;100737.36;128289;1098;22383;-78
2021/06/15 05:10:47;;;;;;;19.88;17.00;;;;;;;16.74;61.59;100744.46;128573;1098;24435;-78
2021/06/15 05:13:20;;;;;;;;;;;;;;;16.93;61.37;100739.23;128591;1095;22422;-77
2021/06/15 05:15:54;;;;;;;17.95;16.08;;;;;;;17.09;60.84;100737.21;128256;1095;21321;-78
2021/06/15 05:18:24;;;;;;;18.18;16.15;;;;;;;17.34;60.35;100737.49;128114;1098;24421;-78
2021/06/15 05:20:54;;;;;;;21.05;16.28;;;;;;;17.57;59.92;100743.27;128200;1095;22395;-77
2021/06/15 05:24:03;;;;;;;20.55;17.83;;;;;;;17.80;59.42;100750.11;128252;1097;22375;-78
2021/06/15 05:26:33;;;;;;;20.40;16.68;;;;;;;18.06;58.87;100746.58;128168;1098;22366;-78
2021/06/15 05:29:03;;;;;;;22.85;15.73;;;;;;;18.26;58.28;100743.88;128236;1097;24323;-78
2021/06/15 05:31:33;;;;;;;20.70;14.90;;;;;;;18.49;57.35;100748.77;128004;1098;22379;-78
2021/06/15 05:34:03;;;;;;;18.23;14.85;;;;;;;18.73;56.73;100750.80;128230;1095;22372;-79
2021/06/15 05:36:33;;;;;;;24.58;15.18;;;;;;;19.03;55.72;100748.40;128277;1095;24320;-77
2021/06/15 05:39:03;;;;;;;19.35;13.85;;;;;;;19.38;54.87;100755.20;128238;1095;22356;-78
2021/06/15 05:41:33;;;;;;;17.85;15.88;;;;;;;19.79;54.11;100757.40;128239;1095;22805;-78
2021/06/15 05:44:05;;;;;;;17.27;12.93;;;;;;;20.26;53.00;100760.52;128240;1095;22437;-78
2021/06/15 05:46:34;;;;;;;17.83;13.28;;;;;;;20.72;51.51;100756.51;128213;1098;22351;-79
2021/06/15 05:49:05;;;;;;;12.95;11.30;;;;;;;21.23;50.33;100754.44;128252;1098;23650;-79
2021/06/15 05:51:35;;;;;;;16.35;11.38;;;;;;;21.80;49.18;100754.83;128515;1098;22363;-79
2021/06/15 05:54:06;;;;;;;20.53;12.07;;;;;;;22.31;48.08;100753.34;127609;1101;22389;-80
2021/06/15 05:56:36;;;;;;;17.85;11.65;;;;;;;22.83;46.60;100763.33;127637;1101;24565;-79
2021/06/15 05:59:08;;;;;;;15.58;10.85;;;;;;;23.26;44.87;100749.36;127659;1101;22401;-79
2021/06/15 06:01:40;;;;;;;14.63;9.90;;;;;;;23.71;44.62;100749.34;127987;1101;22837;-79
2021/06/15 06:04:13;;;;;;;14.93;10.38;;;;;;;24.11;43.32;100753.73;128107;1098;22657;-79
2021/06/15 06:09:31;;;;;;;13.98;8.75;;;;;;;24.89;41.36;100757.22;128217;1098;24986;-80
2021/06/15 06:12:02;;;;;;;11.45;10.10;;;;;;;25.32;40.22;100757.41;128182;1095;22444;-80
2021/06/15 06:14:32;;;;;;;13.20;7.35;;;;;;;25.53;38.79;100751.13;128497;1095;22502;-81
2021/06/15 06:17:04;;;;;;;10.60;7.10;;;;;;;25.81;38.08;100751.91;128518;1095;24693;-83
2021/06/15 06:19:37;;;;;;;14.23;7.37;;;;;;;26.02;37.35;100745.58;128284;1098;22558;-82
2021/06/15 06:22:07;;;;;;;20.40;7.70;;;;;;;26.25;36.83;100746.23;128309;1097;25785;-82
2021/06/15 06:24:37;;;;;;;10.77;6.87;;;;;;;26.42;36.61;100748.75;128554;1098;22365;-83
2021/06/15 06:27:07;;;;;;;14.55;6.73;;;;;;;26.60;35.48;100756.47;128312;1098;22369;-81
2021/06/15 06:29:40;;;;;;;14.00;6.68;;;;;;;26.73;35.73;100758.69;128075;1098;22438;-81
2021/06/15 06:32:12;;;;;;;13.15;6.45;;;;;;;26.82;34.83;100758.16;128276;1098;22375;-80
2021/06/15 06:34:47;;;;;;;10.47;6.63;;;;;;;26.84;34.15;100761.44;128306;1098;22369;-80
2021/06/15 06:37:19;;;;;;;9.75;5.30;;;;;;;26.93;34.30;100760.66;128096;1095;25084;-80
2021/06/15 06:39:52;;;;;;;8.38;5.85;;;;;;;27.09;33.76;100766.94;128233;1095;22375;-79
2021/06/15 06:42:22;;;;;;;17.88;7.08;;;;;;;27.33;33.27;100772.70;128546;1095;22368;-80
2021/06/15 06:44:52;;;;;;;9.00;5.38;;;;;;;27.48;32.74;100765.66;128847;1094;22366;-80
2021/06/15 06:47:22;;;;;;;8.95;4.93;;;;;;;27.40;31.85;100756.16;128613;1092;25011;-80
2021/06/15 06:49:52;;;;;;;10.15;5.10;;;;;;;27.45;31.97;100761.58;128655;1092;24509;-79
2021/06/15 06:52:22;;;;;;;7.60;5.45;;;;;;;27.56;32.10;100765.14;128646;1092;22351;-79
2021/06/15 06:54:51;;;;;;;8.03;5.43;;;;;;;27.75;31.55;100758.05;128653;1092;22346;-79
2021/06/15 06:57:21;;;;;;;12.13;5.75;;;;;;;27.84;31.49;100756.45;128590;1092;22340;-79
2021/06/15 06:59:51;;;;;;;11.33;5.45;;;;;;;27.98;31.02;100755.89;128627;1092;24256;-80
2021/06/15 07:02:20;;;;;;;9.88;6.13;;;;;;;27.98;30.57;100753.98;128629;1092;22342;-81
2021/06/15 07:04:50;;;;;;;10.48;5.85;;;;;;;28.14;30.44;100758.30;128656;1092;22334;-80
2021/06/15 07:07:21;;;;;;;10.28;5.65;;;;;;;28.31;30.13;100754.46;128810;1095;24190;-79
2021/06/15 07:09:50;;;;;;;11.30;5.00;;;;;;;28.53;29.92;100749.53;128340;1092;22367;-80
2021/06/15 07:12:23;;;;;;;10.25;6.40;;;;;;;28.83;29.60;100748.58;128624;1095;23144;-81
2021/06/15 07:14:53;;;;;;;9.83;5.03;;;;;;;29.23;29.43;100749.45;128348;1090;22317;-80
2021/06/15 07:17:25;;;;;;;7.30;5.18;;;;;;;29.44;28.96;100754.74;128654;1094;25007;-79
2021/06/15 07:19:54;;;;;;;12.40;4.93;;;;;;;29.64;27.86;100753.80;128671;1092;22792;-80
2021/06/15 07:22:27;;;;;;;10.85;5.10;;;;;;;29.64;27.56;100753.80;128625;1095;23303;-80
2021/06/15 07:24:58;;;;;;;18.58;5.75;;;;;;;29.87;27.76;100761.20;128102;1095;22363;-80
2021/06/15 07:27:28;;;;;;;10.00;4.90;;;;;;;29.92;27.52;100757.61;128339;1095;22420;-80
2021/06/15 07:30:04;;;;;;;14.38;5.00;;;;;;;30.06;27.34;100753.13;128264;1095;22346;-80
2021/06/15 07:32:37;;;;;;;12.83;5.13;;;;;;;30.23;26.59;100749.98;128536;1095;22347;-81
2021/06/15 07:35:11;;;;;;;12.95;4.78;;;;;;;30.22;26.57;100751.06;128482;1098;23189;-81
2021/06/15 07:37:42;;;;;;;11.55;4.98;;;;;;;30.38;25.98;100747.06;128101;1101;22376;-79
2021/06/15 07:40:23;;;;;;;6.73;4.88;;;;;;;30.35;25.07;100757.73;128176;1101;22444;-80
2021/06/15 07:42:58;;;;;;;6.23;4.40;;;;;;;30.07;25.33;100753.94;128252;1098;22459;-80
2021/06/15 07:45:35;;;;;;;7.88;4.30;;;;;;;29.94;25.72;100750.78;128097;1098;23893;-81
2021/06/15 07:48:07;;;;;;;6.80;4.75;;;;;;;30.22;25.67;100753.79;128093;1098;23151;-81
2021/06/15 07:50:38;;;;;;;;;;;;;;;30.23;25.39;100755.44;128228;1098;23154;-80
2021/06/15 07:53:07;;;;;;;7.80;4.55;;;;;;;30.27;25.65;100758.39;128328;1098;21353;-80
2021/06/15 07:55:37;;;;;;;9.27;4.30;;;;;;;30.32;25.35;100747.41;128320;1095;22414;-82
2021/06/15 07:58:07;;;;;;;7.00;4.50;;;;;;;30.39;25.53;100751.44;128346;1095;23273;-80
2021/06/15 08:00:37;;;;;;;11.48;4.68;;;;;;;30.45;25.48;100747.52;128559;1092;22340;-76
2021/06/15 08:03:06;;;;;;;8.50;4.65;;;;;;;30.44;25.28;100747.83;128632;1092;24164;-81
2021/06/15 08:05:36;;;;;;;7.15;4.88;;;;;;;30.58;25.35;100751.45;128679;1092;22338;-81
2021/06/15 08:08:06;;;;;;;14.00;4.33;;;;;;;30.80;25.30;100763.77;128693;1092;22346;-81
2021/06/15 08:10:36;;;;;;;10.40;4.83;;;;;;;30.84;25.08;100749.24;128968;1092;22432;-81
2021/06/15 08:13:05;;;;;;;12.30;5.77;;;;;;;30.93;24.42;100752.94;128695;1092;22339;-81
2021/06/15 08:15:36;;;;;;;7.60;4.83;;;;;;;30.83;24.84;100753.08;128946;1092;22341;-80
2021/06/15 08:18:06;;;;;;;8.77;5.53;;;;;;;30.90;24.63;100749.99;128641;1092;24251;-80
2021/06/15 08:20:36;;;;;;;9.08;4.50;;;;;;;30.85;24.54;100756.31;128603;1092;23255;-80
2021/06/15 08:23:05;;;;;;;11.77;4.53;;;;;;;30.91;24.97;100744.23;128632;1092;22325;-81
2021/06/15 08:25:35;;;;;;;9.05;4.90;;;;;;;31.13;24.56;100745.56;128664;1092;23109;-81
2021/06/15 08:28:07;;;;;;;13.13;5.50;;;;;;;31.22;24.02;100740.23;128636;1092;24233;-81
2021/06/15 08:30:37;;;;;;;10.10;4.78;;;;;;;31.02;24.24;100739.43;128628;1092;22350;-81
2021/06/15 08:33:08;;;;;;;8.90;4.18;;;;;;;30.95;24.80;100728.08;128669;1092;22439;-81
2021/06/15 08:35:37;;;;;;;;;;;;;;;31.07;24.35;100746.75;128985;1095;22345;-80
2021/06/15 08:38:07;;;;;;;9.53;5.38;;;;;;;31.06;24.40;100737.75;128898;1092;21341;-80
2021/06/15 08:40:37;;;;;;;7.60;4.73;;;;;;;31.01;24.90;100742.47;128630;1092;24155;-81
2021/06/15 08:43:07;;;;;;;12.23;5.88;;;;;;;31.07;24.67;100741.29;128600;1092;23259;-80
2021/06/15 08:45:40;;;;;;;9.78;7.35;;;;;;;31.24;24.55;100736.11;128795;1092;22344;-81
2021/06/15 08:48:13;;;;;;;6.35;4.63;;;;;;;31.28;24.24;100736.32;128989;1092;22356;-80
2021/06/15 08:50:44;;;;;;;6.33;4.48;;;;;;;31.38;24.09;100730.73;128486;1095;22323;-80
2021/06/15 08:53:14;;;;;;;12.85;9.58;;;;;;;31.55;23.95;100730.98;128693;1092;22359;-80
2021/06/15 08:55:55;;;;;;;9.23;5.67;;;;;;;31.60;23.30;100724.64;128631;1092;22337;-79
2021/06/15 08:59:16;;;;;;;5.70;4.55;;;;;;;31.54;23.55;100720.37;128605;1092;22875;-80
2021/06/15 09:01:54;;;;;;;6.30;4.45;;;;;;;31.34;24.04;100727.78;128623;1092;22350;-80
2021/06/15 09:04:25;;;;;;;7.50;5.00;;;;;;;31.44;23.64;100729.54;128638;1092;22368;-80
2021/06/15 09:06:58;;;;;;;9.10;6.08;;;;;;;31.44;23.66;100717.81;128393;1095;24595;-81
2021/06/15 09:09:44;;;;;;;8.95;5.05;;;;;;;31.35;23.89;100718.48;128572;1095;22414;-79
2021/06/15 09:12:20;;;;;;;5.73;4.30;;;;;;;31.34;24.12;100716.06;128496;1095;22337;-79
2021/06/15 09:14:51;;;;;;;7.50;4.30;;;;;;;31.35;23.66;100720.41;128773;1095;22350;-79
2021/06/15 09:17:27;;;;;;;7.53;4.98;;;;;;;31.29;23.58;100716.94;128598;1095;22337;-79
2021/06/15 09:20:08;;;;;;;7.50;4.98;;;;;;;31.23;23.94;100709.94;128655;1095;24573;-80
2021/06/15 09:22:41;;;;;;;6.18;5.20;;;;;;;31.45;23.94;100717.50;128306;1095;22332;-80
2021/06/15 09:25:15;;;;;;;6.67;4.63;;;;;;;31.61;23.53;100715.33;128442;1092;24491;-79
2021/06/15 09:27:45;;;;;;;8.50;4.43;;;;;;;31.77;23.49;100715.88;128313;1095;24583;-81
2021/06/15 09:30:17;;;;;;;14.63;6.58;;;;;;;31.93;23.10;100711.78;128160;1097;24502;-79
2021/06/15 09:32:47;;;;;;;9.65;5.33;;;;;;;31.99;23.86;100721.50;128088;1098;22467;-79
2021/06/15 09:35:28;;;;;;;9.73;6.83;;;;;;;32.03;23.54;100716.23;128107;1098;22362;-79
2021/06/15 09:38:00;;;;;;;9.48;5.85;;;;;;;32.31;23.47;100706.91;128033;1098;22412;-79
2021/06/15 09:40:33;;;;;;;7.10;5.00;;;;;;;32.49;22.85;100709.84;128007;1098;24329;-79
2021/06/15 09:43:12;;;;;;;9.43;5.00;;;;;;;32.27;22.79;100705.09;127988;1101;23293;-81
2021/06/15 09:45:48;;;;;;;7.90;4.98;;;;;;;31.92;22.96;100718.33;128042;1098;25140;-80
2021/06/15 09:48:28;;;;;;;7.03;6.03;;;;;;;31.57;23.39;100715.12;128063;1098;23140;-79
2021/06/15 09:51:09;;;;;;;5.83;4.15;;;;;;;31.45;23.33;100716.70;128205;1098;22394;-79
2021/06/15 09:53:45;;;;;;;8.57;5.60;;;;;;;31.51;23.87;100715.50;128050;1098;22455;-79
2021/06/15 09:56:18;;;;;;;9.03;5.53;;;;;;;31.61;23.43;100701.67;127935;1098;22262;-79
2021/06/15 09:58:52;;;;;;;;;;;;;;;31.82;23.88;100702.10;128095;1098;22394;-79
2021/06/15 10:01:42;;;;;;;7.85;4.90;;;;;;;31.97;23.40;100701.05;128380;1095;21318;-80
2021/06/15 10:04:22;;;;;;;9.30;4.45;;;;;;;32.06;23.28;100701.97;128275;1095;22360;-79
2021/06/15 10:06:59;;;;;;;6.85;4.58;;;;;;;32.07;23.61;100698.92;128522;1095;24575;-81
2021/06/15 10:09:35;;;;;;;6.83;4.78;;;;;;;31.75;23.57;100699.77;128280;1095;22502;-82
2021/06/15 10:12:08;;;;;;;7.00;5.10;;;;;;;31.38;23.89;100695.23;128315;1095;25005;-79
2021/06/15 10:14:38;;;;;;;8.33;5.40;;;;;;;31.22;24.49;100702.83;128551;1092;23293;-81
2021/06/15 10:17:09;;;;;;;8.35;4.50;;;;;;;31.02;24.63;100695.77;128667;1092;24248;-79
2021/06/15 10:19:40;;;;;;;5.95;4.40;;;;;;;31.02;24.76;100694.97;128587;1092;23065;-79
2021/06/15 10:22:13;;;;;;;8.38;4.88;;;;;;;31.10;24.96;100686.94;128710;1092;22322;-79
2021/06/15 10:24:42;;;;;;;9.20;4.85;;;;;;;31.00;24.29;100695.28;128645;1092;22356;-80
2021/06/15 10:27:13;;;;;;;8.50;5.38;;;;;;;30.76;25.08;100695.37;128648;1092;22399;-80
2021/06/15 10:29:51;;;;;;;7.60;4.63;;;;;;;30.61;25.13;100687.36;128693;1092;22353;-79
2021/06/15 10:32:24;;;;;;;9.75;5.38;;;;;;;30.64;25.74;100679.40;128686;1092;22786;-80
2021/06/15 10:35:04;;;;;;;9.68;5.03;;;;;;;30.68;26.02;100685.07;128731;1092;22364;-80
2021/06/15 10:40:06;;;;;;;9.10;4.30;;;;;;;30.22;25.56;100678.33;128751;1092;22333;-79
2021/06/15 10:42:37;;;;;;;5.78;4.25;;;;;;;29.92;26.10;100676.71;128726;1092;24557;-80
2021/06/15 10:45:33;;;;;;;;;;;;;;;29.69;26.65;100669.34;128378;1092;22456;-81
2021/06/15 10:48:06;;;;;;;7.13;6.28;;;;;;;29.56;26.87;100668.09;128190;1098;21269;-83
2021/06/15 10:50:50;;;;;;;10.23;6.15;;;;;;;29.42;26.79;100670.64;128309;1098;22920;-82
2021/06/15 10:53:36;;;;;;;7.45;4.95;;;;;;;29.09;27.40;100664.15;127978;1101;22376;-82
2021/06/15 10:56:12;;;;;;;8.13;4.48;;;;;;;28.97;27.80;100663.66;127363;1105;24840;-83
2021/06/15 10:59:08;;;;;;;10.15;4.93;;;;;;;28.83;28.03;100658.05;127874;1105;22407;-82
2021/06/15 11:01:42;;;;;;;12.03;5.43;;;;;;;28.75;27.99;100656.72;127295;1105;22381;-82
2021/06/15 11:04:14;;;;;;;5.17;4.17;;;;;;;28.74;28.09;100662.45;127316;1105;22465;-83
2021/06/15 11:06:49;;;;;;;6.08;4.55;;;;;;;28.54;28.36;100650.59;127599;1101;22369;-83
2021/06/15 11:09:24;;;;;;;6.63;3.80;;;;;;;28.47;28.44;100647.38;127843;1101;22724;-83
2021/06/15 11:12:23;;;;;;;14.65;4.40;;;;;;;28.43;28.85;100642.80;127904;1101;24275;-81
2021/06/15 11:15:20;;;;;;;8.20;4.13;;;;;;;28.41;28.94;100636.81;127605;1105;22406;-82
2021/06/15 11:17:56;;;;;;;7.03;4.48;;;;;;;28.33;28.95;100636.28;127584;1105;22496;-81
2021/06/15 11:20:34;;;;;;;6.18;4.15;;;;;;;28.22;29.04;100639.31;127274;1108;22430;-82
2021/06/15 11:23:11;;;;;;;5.53;4.13;;;;;;;27.99;29.18;100632.61;127009;1108;22423;-81
2021/06/15 11:25:50;;;;;;;7.00;4.53;;;;;;;27.90;29.39;100635.09;127110;1104;24257;-81
2021/06/15 11:28:41;;;;;;;11.20;5.55;;;;;;;27.85;29.92;100633.19;127326;1105;22948;-83
2021/06/15 11:31:17;;;;;;;;;;;;;;;27.82;30.12;100631.03;127352;1105;22429;-82
2021/06/15 11:33:59;;;;;;;6.58;4.25;;;;;;;27.81;29.95;100634.03;127503;1102;23183;-81
2021/06/15 11:36:46;;;;;;;8.35;4.48;;;;;;;27.80;30.19;100629.70;127216;1105;22459;-81
2021/06/15 11:39:32;;;;;;;7.38;4.78;;;;;;;27.86;30.82;100623.17;127630;1101;22388;-82
2021/06/15 11:42:30;;;;;;;6.68;4.80;;;;;;;27.99;30.83;100619.03;128257;1101;22390;-82
2021/06/15 11:45:20;;;;;;;6.90;4.90;;;;;;;28.12;30.75;100611.13;127981;1101;22384;-82
2021/06/15 11:47:56;;;;;;;7.58;5.05;;;;;;;28.08;30.44;100615.46;128239;1101;24271;-82
2021/06/15 11:50:44;;;;;;;10.00;4.80;;;;;;;28.09;30.80;100608.13;127808;1101;22429;-82
2021/06/15 11:53:19;;;;;;;6.53;4.23;;;;;;;28.14;30.58;100614.36;128146;1098;22363;-83
2021/06/15 11:56:01;;;;;;;8.05;5.73;;;;;;;28.25;30.45;100609.68;128241;1098;22391;-83